LOD weather

Longana Airport
Longana, Penama, Vanuatu

Public forecast

Using degrees Celsius for public forecast. Weather courtesy of forecast.io.

METAR (pilot weather report)

Report is more than 6 hours old.

Retrieved 2019/06/01 21:00 UTC (18 days ago):

NVSG 012100Z NI

TAF (pilot weather forecast)

Forecast is more than 6 hours old.

Retrieved 2019/06/19 06:35 UTC (8 hours ago):

TAF NVSG 190430Z 1906/2006 13010G20KT 9999 SCT020 INTER 1906/1912 8000 SHRA BKN018 OVC040 BECMG 1908/1910 13008KT